sensor_id;sensor_type;location;lat;lon;timestamp;P1;durP1;ratioP1;P2;durP2;ratioP2
26277;SDS011;14000;52.056;8.510;2023-02-11T00:01:37;89.07;;;44.27;;
26277;SDS011;14000;52.056;8.510;2023-02-11T00:04:03;88.93;;;42.63;;
26277;SDS011;14000;52.056;8.510;2023-02-11T00:06:30;95.43;;;43.37;;
26277;SDS011;14000;52.056;8.510;2023-02-11T00:08:57;85.63;;;42.40;;
26277;SDS011;14000;52.056;8.510;2023-02-11T00:11:23;87.40;;;42.07;;
26277;SDS011;14000;52.056;8.510;2023-02-11T00:13:54;86.10;;;43.13;;
26277;SDS011;14000;52.056;8.510;2023-02-11T00:16:23;86.90;;;43.57;;
26277;SDS011;14000;52.056;8.510;2023-02-11T00:18:49;83.27;;;42.17;;
26277;SDS011;14000;52.056;8.510;2023-02-11T00:21:17;93.60;;;45.33;;
26277;SDS011;14000;52.056;8.510;2023-02-11T00:23:45;101.20;;;48.13;;
26277;SDS011;14000;52.056;8.510;2023-02-11T00:26:12;87.03;;;44.03;;
26277;SDS011;14000;52.056;8.510;2023-02-11T00:28:39;88.27;;;43.80;;
26277;SDS011;14000;52.056;8.510;2023-02-11T00:31:05;89.30;;;45.10;;
26277;SDS011;14000;52.056;8.510;2023-02-11T00:33:30;94.90;;;45.60;;
26277;SDS011;14000;52.056;8.510;2023-02-11T00:35:56;94.03;;;45.07;;
26277;SDS011;14000;52.056;8.510;2023-02-11T00:38:22;94.73;;;46.73;;
26277;SDS011;14000;52.056;8.510;2023-02-11T00:40:48;101.33;;;45.70;;
26277;SDS011;14000;52.056;8.510;2023-02-11T00:43:13;92.37;;;45.03;;
26277;SDS011;14000;52.056;8.510;2023-02-11T00:45:39;91.00;;;44.70;;
26277;SDS011;14000;52.056;8.510;2023-02-11T00:48:04;100.33;;;48.20;;
26277;SDS011;14000;52.056;8.510;2023-02-11T00:50:30;94.47;;;45.83;;
26277;SDS011;14000;52.056;8.510;2023-02-11T00:52:56;91.73;;;45.63;;
26277;SDS011;14000;52.056;8.510;2023-02-11T00:55:21;93.80;;;47.57;;
26277;SDS011;14000;52.056;8.510;2023-02-11T00:57:47;97.97;;;47.33;;
26277;SDS011;14000;52.056;8.510;2023-02-11T01:00:12;99.10;;;49.13;;
26277;SDS011;14000;52.056;8.510;2023-02-11T01:02:39;97.87;;;46.23;;
26277;SDS011;14000;52.056;8.510;2023-02-11T01:05:05;100.50;;;49.50;;
26277;SDS011;14000;52.056;8.510;2023-02-11T01:07:31;109.50;;;52.63;;
26277;SDS011;14000;52.056;8.510;2023-02-11T01:09:56;102.40;;;50.87;;
26277;SDS011;14000;52.056;8.510;2023-02-11T01:12:22;107.97;;;53.07;;
26277;SDS011;14000;52.056;8.510;2023-02-11T01:14:48;106.60;;;53.00;;
26277;SDS011;14000;52.056;8.510;2023-02-11T01:17:14;111.27;;;50.43;;
26277;SDS011;14000;52.056;8.510;2023-02-11T01:19:39;106.77;;;52.83;;
26277;SDS011;14000;52.056;8.510;2023-02-11T01:22:05;107.67;;;53.13;;
26277;SDS011;14000;52.056;8.510;2023-02-11T01:24:31;115.63;;;54.53;;
26277;SDS011;14000;52.056;8.510;2023-02-11T01:26:56;111.20;;;51.87;;
26277;SDS011;14000;52.056;8.510;2023-02-11T01:29:22;117.57;;;52.37;;
26277;SDS011;14000;52.056;8.510;2023-02-11T01:31:48;115.20;;;53.80;;
26277;SDS011;14000;52.056;8.510;2023-02-11T01:34:14;105.23;;;52.83;;
26277;SDS011;14000;52.056;8.510;2023-02-11T01:36:40;110.60;;;51.00;;
26277;SDS011;14000;52.056;8.510;2023-02-11T01:39:06;110.23;;;54.37;;
26277;SDS011;14000;52.056;8.510;2023-02-11T01:41:35;107.93;;;51.17;;
26277;SDS011;14000;52.056;8.510;2023-02-11T01:46:48;110.30;;;54.63;;
26277;SDS011;14000;52.056;8.510;2023-02-11T01:49:15;106.53;;;52.20;;
26277;SDS011;14000;52.056;8.510;2023-02-11T01:52:01;119.07;;;55.17;;
26277;SDS011;14000;52.056;8.510;2023-02-11T01:54:35;124.90;;;55.40;;
26277;SDS011;14000;52.056;8.510;2023-02-11T01:57:27;124.37;;;57.53;;
26277;SDS011;14000;52.056;8.510;2023-02-11T02:08:12;111.73;;;52.37;;
26277;SDS011;14000;52.056;8.510;2023-02-11T02:10:46;112.80;;;53.27;;
26277;SDS011;14000;52.056;8.510;2023-02-11T02:13:14;120.10;;;54.50;;
26277;SDS011;14000;52.056;8.510;2023-02-11T02:15:40;120.27;;;53.40;;
26277;SDS011;14000;52.056;8.510;2023-02-11T02:18:21;108.83;;;53.13;;
26277;SDS011;14000;52.056;8.510;2023-02-11T02:34:52;113.53;;;52.77;;
26277;SDS011;14000;52.056;8.510;2023-02-11T02:40:01;114.77;;;53.27;;
26277;SDS011;14000;52.056;8.510;2023-02-11T02:42:33;106.37;;;53.63;;
26277;SDS011;14000;52.056;8.510;2023-02-11T02:44:59;111.17;;;50.40;;
26277;SDS011;14000;52.056;8.510;2023-02-11T02:47:25;114.33;;;53.37;;
26277;SDS011;14000;52.056;8.510;2023-02-11T02:49:50;116.90;;;54.27;;
26277;SDS011;14000;52.056;8.510;2023-02-11T02:57:44;114.73;;;50.60;;
26277;SDS011;14000;52.056;8.510;2023-02-11T03:02:59;114.73;;;54.40;;
26277;SDS011;14000;52.056;8.510;2023-02-11T03:05:33;112.30;;;51.10;;
26277;SDS011;14000;52.056;8.510;2023-02-11T03:08:23;112.40;;;51.20;;
26277;SDS011;14000;52.056;8.510;2023-02-11T03:10:50;117.73;;;54.47;;
26277;SDS011;14000;52.056;8.510;2023-02-11T03:13:17;136.03;;;58.20;;
26277;SDS011;14000;52.056;8.510;2023-02-11T03:15:47;114.90;;;52.20;;
26277;SDS011;14000;52.056;8.510;2023-02-11T03:18:16;123.30;;;56.97;;
26277;SDS011;14000;52.056;8.510;2023-02-11T03:20:46;107.07;;;53.00;;
26277;SDS011;14000;52.056;8.510;2023-02-11T03:23:18;126.20;;;57.83;;
26277;SDS011;14000;52.056;8.510;2023-02-11T03:25:58;113.13;;;53.33;;
26277;SDS011;14000;52.056;8.510;2023-02-11T03:28:32;129.73;;;57.47;;
26277;SDS011;14000;52.056;8.510;2023-02-11T03:33:54;123.40;;;54.33;;
26277;SDS011;14000;52.056;8.510;2023-02-11T03:36:41;128.20;;;56.50;;
26277;SDS011;14000;52.056;8.510;2023-02-11T03:39:20;122.57;;;55.60;;
26277;SDS011;14000;52.056;8.510;2023-02-11T03:41:49;113.87;;;55.43;;
26277;SDS011;14000;52.056;8.510;2023-02-11T03:44:16;114.50;;;55.27;;
26277;SDS011;14000;52.056;8.510;2023-02-11T03:46:47;113.03;;;53.47;;
26277;SDS011;14000;52.056;8.510;2023-02-11T03:49:15;115.87;;;55.30;;
26277;SDS011;14000;52.056;8.510;2023-02-11T03:51:44;117.27;;;55.30;;
26277;SDS011;14000;52.056;8.510;2023-02-11T03:54:14;111.63;;;55.03;;
26277;SDS011;14000;52.056;8.510;2023-02-11T03:56:48;114.93;;;55.77;;
26277;SDS011;14000;52.056;8.510;2023-02-11T03:59:16;127.53;;;57.27;;
26277;SDS011;14000;52.056;8.510;2023-02-11T04:01:42;106.97;;;53.67;;
26277;SDS011;14000;52.056;8.510;2023-02-11T04:04:08;123.03;;;57.50;;
26277;SDS011;14000;52.056;8.510;2023-02-11T04:06:34;114.57;;;54.60;;
26277;SDS011;14000;52.056;8.510;2023-02-11T04:09:00;110.43;;;52.27;;
26277;SDS011;14000;52.056;8.510;2023-02-11T04:11:25;114.27;;;54.00;;
26277;SDS011;14000;52.056;8.510;2023-02-11T04:13:51;119.83;;;52.40;;
26277;SDS011;14000;52.056;8.510;2023-02-11T04:16:16;102.17;;;51.90;;
26277;SDS011;14000;52.056;8.510;2023-02-11T04:18:42;98.90;;;50.03;;
26277;SDS011;14000;52.056;8.510;2023-02-11T04:21:08;110.57;;;52.47;;
26277;SDS011;14000;52.056;8.510;2023-02-11T04:23:33;97.87;;;48.73;;
26277;SDS011;14000;52.056;8.510;2023-02-11T04:25:59;108.50;;;48.87;;
26277;SDS011;14000;52.056;8.510;2023-02-11T04:28:25;102.97;;;48.07;;
26277;SDS011;14000;52.056;8.510;2023-02-11T04:30:53;100.23;;;47.33;;
26277;SDS011;14000;52.056;8.510;2023-02-11T04:33:19;89.00;;;45.97;;
26277;SDS011;14000;52.056;8.510;2023-02-11T04:35:45;103.70;;;47.87;;
26277;SDS011;14000;52.056;8.510;2023-02-11T04:38:10;88.17;;;45.37;;
26277;SDS011;14000;52.056;8.510;2023-02-11T04:40:36;97.93;;;45.37;;
26277;SDS011;14000;52.056;8.510;2023-02-11T04:43:02;94.50;;;45.80;;
26277;SDS011;14000;52.056;8.510;2023-02-11T04:45:28;92.70;;;44.40;;
26277;SDS011;14000;52.056;8.510;2023-02-11T04:47:53;97.70;;;45.33;;
26277;SDS011;14000;52.056;8.510;2023-02-11T04:50:19;89.50;;;46.13;;
26277;SDS011;14000;52.056;8.510;2023-02-11T04:52:44;95.60;;;45.27;;
26277;SDS011;14000;52.056;8.510;2023-02-11T04:55:10;99.27;;;45.63;;
26277;SDS011;14000;52.056;8.510;2023-02-11T04:57:36;84.13;;;42.87;;
26277;SDS011;14000;52.056;8.510;2023-02-11T05:00:02;90.40;;;44.60;;
26277;SDS011;14000;52.056;8.510;2023-02-11T05:02:28;87.70;;;43.90;;
26277;SDS011;14000;52.056;8.510;2023-02-11T05:04:54;93.07;;;46.13;;
26277;SDS011;14000;52.056;8.510;2023-02-11T05:07:19;90.30;;;42.87;;
26277;SDS011;14000;52.056;8.510;2023-02-11T05:09:45;83.27;;;44.17;;
26277;SDS011;14000;52.056;8.510;2023-02-11T05:12:10;86.67;;;44.50;;
26277;SDS011;14000;52.056;8.510;2023-02-11T05:14:36;88.93;;;43.63;;
26277;SDS011;14000;52.056;8.510;2023-02-11T05:17:01;86.03;;;44.03;;
26277;SDS011;14000;52.056;8.510;2023-02-11T05:19:27;86.50;;;45.33;;
26277;SDS011;14000;52.056;8.510;2023-02-11T05:21:53;81.23;;;41.73;;
26277;SDS011;14000;52.056;8.510;2023-02-11T05:24:18;84.47;;;45.03;;
26277;SDS011;14000;52.056;8.510;2023-02-11T05:26:44;86.33;;;43.27;;
26277;SDS011;14000;52.056;8.510;2023-02-11T05:29:09;89.20;;;42.33;;
26277;SDS011;14000;52.056;8.510;2023-02-11T05:31:35;81.17;;;43.43;;
26277;SDS011;14000;52.056;8.510;2023-02-11T05:34:00;81.23;;;42.37;;
26277;SDS011;14000;52.056;8.510;2023-02-11T05:36:28;83.20;;;43.97;;
26277;SDS011;14000;52.056;8.510;2023-02-11T05:38:54;87.07;;;44.13;;
26277;SDS011;14000;52.056;8.510;2023-02-11T05:41:19;93.20;;;43.73;;
26277;SDS011;14000;52.056;8.510;2023-02-11T05:43:46;84.60;;;42.77;;
26277;SDS011;14000;52.056;8.510;2023-02-11T05:46:16;85.33;;;40.60;;
26277;SDS011;14000;52.056;8.510;2023-02-11T05:48:42;94.13;;;42.77;;
26277;SDS011;14000;52.056;8.510;2023-02-11T05:51:08;85.87;;;43.30;;
26277;SDS011;14000;52.056;8.510;2023-02-11T05:53:33;80.40;;;42.80;;
26277;SDS011;14000;52.056;8.510;2023-02-11T05:55:59;86.03;;;43.20;;
26277;SDS011;14000;52.056;8.510;2023-02-11T05:58:25;89.63;;;41.57;;
26277;SDS011;14000;52.056;8.510;2023-02-11T06:00:50;83.67;;;41.73;;
26277;SDS011;14000;52.056;8.510;2023-02-11T06:03:16;93.20;;;41.87;;
26277;SDS011;14000;52.056;8.510;2023-02-11T06:05:42;81.07;;;40.90;;
26277;SDS011;14000;52.056;8.510;2023-02-11T06:08:08;82.40;;;43.00;;
26277;SDS011;14000;52.056;8.510;2023-02-11T06:10:34;77.97;;;41.10;;
26277;SDS011;14000;52.056;8.510;2023-02-11T06:13:00;89.53;;;43.27;;
26277;SDS011;14000;52.056;8.510;2023-02-11T06:15:26;80.20;;;42.33;;
26277;SDS011;14000;52.056;8.510;2023-02-11T06:17:52;86.00;;;43.30;;
26277;SDS011;14000;52.056;8.510;2023-02-11T06:20:17;85.43;;;41.70;;
26277;SDS011;14000;52.056;8.510;2023-02-11T06:22:43;80.57;;;41.93;;
26277;SDS011;14000;52.056;8.510;2023-02-11T06:25:09;85.37;;;41.83;;
26277;SDS011;14000;52.056;8.510;2023-02-11T06:27:35;80.73;;;41.10;;
26277;SDS011;14000;52.056;8.510;2023-02-11T06:30:02;78.63;;;41.03;;
26277;SDS011;14000;52.056;8.510;2023-02-11T06:32:28;88.90;;;43.10;;
26277;SDS011;14000;52.056;8.510;2023-02-11T06:34:53;77.13;;;39.30;;
26277;SDS011;14000;52.056;8.510;2023-02-11T06:37:19;86.33;;;41.80;;
26277;SDS011;14000;52.056;8.510;2023-02-11T06:39:45;82.20;;;41.97;;
26277;SDS011;14000;52.056;8.510;2023-02-11T06:42:10;86.70;;;42.17;;
26277;SDS011;14000;52.056;8.510;2023-02-11T06:44:36;91.83;;;42.17;;
26277;SDS011;14000;52.056;8.510;2023-02-11T06:47:02;86.37;;;41.77;;
26277;SDS011;14000;52.056;8.510;2023-02-11T06:49:28;81.23;;;41.47;;
26277;SDS011;14000;52.056;8.510;2023-02-11T06:51:53;80.50;;;40.77;;
26277;SDS011;14000;52.056;8.510;2023-02-11T06:54:19;87.93;;;43.37;;
26277;SDS011;14000;52.056;8.510;2023-02-11T06:56:44;87.57;;;42.67;;
26277;SDS011;14000;52.056;8.510;2023-02-11T06:59:16;87.50;;;44.67;;
26277;SDS011;14000;52.056;8.510;2023-02-11T07:01:43;85.47;;;43.20;;
26277;SDS011;14000;52.056;8.510;2023-02-11T07:04:09;85.17;;;42.17;;
26277;SDS011;14000;52.056;8.510;2023-02-11T07:06:35;87.73;;;42.70;;
26277;SDS011;14000;52.056;8.510;2023-02-11T07:09:02;86.90;;;43.13;;
26277;SDS011;14000;52.056;8.510;2023-02-11T07:11:28;86.33;;;42.40;;
26277;SDS011;14000;52.056;8.510;2023-02-11T07:14:04;81.20;;;40.50;;
26277;SDS011;14000;52.056;8.510;2023-02-11T07:16:32;83.37;;;41.47;;
26277;SDS011;14000;52.056;8.510;2023-02-11T07:18:58;92.97;;;44.33;;
26277;SDS011;14000;52.056;8.510;2023-02-11T07:21:24;86.10;;;42.23;;
26277;SDS011;14000;52.056;8.510;2023-02-11T07:23:50;83.20;;;42.07;;
26277;SDS011;14000;52.056;8.510;2023-02-11T07:26:17;86.07;;;44.80;;
26277;SDS011;14000;52.056;8.510;2023-02-11T07:28:46;95.13;;;43.77;;
26277;SDS011;14000;52.056;8.510;2023-02-11T07:31:16;85.13;;;41.30;;
26277;SDS011;14000;52.056;8.510;2023-02-11T07:33:44;91.77;;;44.60;;
26277;SDS011;14000;52.056;8.510;2023-02-11T07:36:10;90.63;;;41.67;;
26277;SDS011;14000;52.056;8.510;2023-02-11T07:38:37;96.23;;;44.57;;
26277;SDS011;14000;52.056;8.510;2023-02-11T07:41:04;90.03;;;44.60;;
26277;SDS011;14000;52.056;8.510;2023-02-11T07:43:31;84.23;;;42.33;;
26277;SDS011;14000;52.056;8.510;2023-02-11T07:45:57;84.97;;;43.87;;
26277;SDS011;14000;52.056;8.510;2023-02-11T07:48:23;92.30;;;44.63;;
26277;SDS011;14000;52.056;8.510;2023-02-11T07:50:49;88.33;;;46.07;;
26277;SDS011;14000;52.056;8.510;2023-02-11T07:53:14;89.03;;;45.47;;
26277;SDS011;14000;52.056;8.510;2023-02-11T07:55:41;86.43;;;44.17;;
26277;SDS011;14000;52.056;8.510;2023-02-11T07:58:07;87.40;;;45.63;;
26277;SDS011;14000;52.056;8.510;2023-02-11T08:00:33;94.37;;;47.37;;
26277;SDS011;14000;52.056;8.510;2023-02-11T08:02:59;97.50;;;47.73;;
26277;SDS011;14000;52.056;8.510;2023-02-11T08:05:24;98.50;;;49.60;;
26277;SDS011;14000;52.056;8.510;2023-02-11T08:07:53;93.07;;;45.57;;
26277;SDS011;14000;52.056;8.510;2023-02-11T08:10:19;92.17;;;47.27;;
26277;SDS011;14000;52.056;8.510;2023-02-11T08:12:45;99.53;;;48.97;;
26277;SDS011;14000;52.056;8.510;2023-02-11T08:15:11;92.53;;;46.23;;
26277;SDS011;14000;52.056;8.510;2023-02-11T08:17:37;102.63;;;48.50;;
26277;SDS011;14000;52.056;8.510;2023-02-11T08:20:03;93.33;;;45.93;;
26277;SDS011;14000;52.056;8.510;2023-02-11T08:22:33;96.03;;;46.70;;
26277;SDS011;14000;52.056;8.510;2023-02-11T08:24:59;103.73;;;47.50;;
26277;SDS011;14000;52.056;8.510;2023-02-11T08:27:25;96.40;;;47.73;;
26277;SDS011;14000;52.056;8.510;2023-02-11T08:29:54;97.97;;;47.93;;
26277;SDS011;14000;52.056;8.510;2023-02-11T08:32:20;95.03;;;45.77;;
26277;SDS011;14000;52.056;8.510;2023-02-11T08:34:49;100.53;;;46.80;;
26277;SDS011;14000;52.056;8.510;2023-02-11T08:37:18;96.63;;;45.67;;
26277;SDS011;14000;52.056;8.510;2023-02-11T08:39:44;113.93;;;49.20;;
26277;SDS011;14000;52.056;8.510;2023-02-11T08:42:11;105.00;;;47.57;;
26277;SDS011;14000;52.056;8.510;2023-02-11T08:44:37;101.63;;;48.73;;
26277;SDS011;14000;52.056;8.510;2023-02-11T08:47:03;104.20;;;48.73;;
26277;SDS011;14000;52.056;8.510;2023-02-11T08:49:29;98.83;;;46.07;;
26277;SDS011;14000;52.056;8.510;2023-02-11T08:51:56;110.07;;;48.37;;
26277;SDS011;14000;52.056;8.510;2023-02-11T08:54:26;103.40;;;48.20;;
26277;SDS011;14000;52.056;8.510;2023-02-11T08:56:51;102.20;;;48.13;;
26277;SDS011;14000;52.056;8.510;2023-02-11T08:59:17;99.63;;;47.03;;
26277;SDS011;14000;52.056;8.510;2023-02-11T09:01:43;105.50;;;47.30;;
26277;SDS011;14000;52.056;8.510;2023-02-11T09:04:10;108.07;;;48.90;;
26277;SDS011;14000;52.056;8.510;2023-02-11T09:06:36;106.73;;;48.53;;
26277;SDS011;14000;52.056;8.510;2023-02-11T09:09:02;105.47;;;49.17;;
26277;SDS011;14000;52.056;8.510;2023-02-11T09:11:32;119.03;;;51.47;;
26277;SDS011;14000;52.056;8.510;2023-02-11T09:14:00;118.23;;;51.23;;
26277;SDS011;14000;52.056;8.510;2023-02-11T09:16:27;122.23;;;50.80;;
26277;SDS011;14000;52.056;8.510;2023-02-11T09:18:58;112.47;;;52.07;;
26277;SDS011;14000;52.056;8.510;2023-02-11T09:21:24;118.03;;;52.73;;
26277;SDS011;14000;52.056;8.510;2023-02-11T09:23:51;118.63;;;50.80;;
26277;SDS011;14000;52.056;8.510;2023-02-11T09:26:18;112.27;;;50.07;;
26277;SDS011;14000;52.056;8.510;2023-02-11T09:28:46;116.73;;;51.10;;
26277;SDS011;14000;52.056;8.510;2023-02-11T09:31:17;117.53;;;52.10;;
26277;SDS011;14000;52.056;8.510;2023-02-11T09:33:44;116.53;;;51.80;;
26277;SDS011;14000;52.056;8.510;2023-02-11T09:36:15;114.23;;;51.83;;
26277;SDS011;14000;52.056;8.510;2023-02-11T09:38:43;110.50;;;50.30;;
26277;SDS011;14000;52.056;8.510;2023-02-11T09:44:07;119.90;;;53.23;;
26277;SDS011;14000;52.056;8.510;2023-02-11T09:46:45;121.83;;;52.23;;
26277;SDS011;14000;52.056;8.510;2023-02-11T09:49:29;108.60;;;49.27;;
26277;SDS011;14000;52.056;8.510;2023-02-11T09:52:05;112.00;;;50.87;;
26277;SDS011;14000;52.056;8.510;2023-02-11T09:54:57;105.30;;;47.73;;
26277;SDS011;14000;52.056;8.510;2023-02-11T09:57:25;109.00;;;49.73;;
26277;SDS011;14000;52.056;8.510;2023-02-11T10:00:00;111.47;;;50.30;;
26277;SDS011;14000;52.056;8.510;2023-02-11T10:11:07;110.57;;;50.43;;
26277;SDS011;14000;52.056;8.510;2023-02-11T10:16:47;107.17;;;49.33;;
26277;SDS011;14000;52.056;8.510;2023-02-11T10:19:42;117.27;;;52.07;;
26277;SDS011;14000;52.056;8.510;2023-02-11T10:24:54;127.93;;;53.17;;
26277;SDS011;14000;52.056;8.510;2023-02-11T10:27:31;104.87;;;49.57;;
26277;SDS011;14000;52.056;8.510;2023-02-11T10:29:59;109.17;;;50.73;;
26277;SDS011;14000;52.056;8.510;2023-02-11T10:33:09;113.63;;;50.20;;
26277;SDS011;14000;52.056;8.510;2023-02-11T10:35:42;113.40;;;50.60;;
26277;SDS011;14000;52.056;8.510;2023-02-11T10:38:08;112.73;;;48.57;;
26277;SDS011;14000;52.056;8.510;2023-02-11T10:40:35;122.10;;;52.57;;
26277;SDS011;14000;52.056;8.510;2023-02-11T10:43:02;119.03;;;49.23;;
26277;SDS011;14000;52.056;8.510;2023-02-11T10:45:35;124.07;;;52.90;;
26277;SDS011;14000;52.056;8.510;2023-02-11T10:48:04;117.23;;;52.17;;
26277;SDS011;14000;52.056;8.510;2023-02-11T10:50:50;118.70;;;50.90;;
26277;SDS011;14000;52.056;8.510;2023-02-11T10:53:36;115.00;;;52.10;;
26277;SDS011;14000;52.056;8.510;2023-02-11T10:56:03;118.93;;;50.70;;
26277;SDS011;14000;52.056;8.510;2023-02-11T10:58:36;116.23;;;50.13;;
26277;SDS011;14000;52.056;8.510;2023-02-11T11:01:09;108.70;;;49.63;;
26277;SDS011;14000;52.056;8.510;2023-02-11T11:03:44;116.07;;;49.23;;
26277;SDS011;14000;52.056;8.510;2023-02-11T11:06:12;111.77;;;47.83;;
26277;SDS011;14000;52.056;8.510;2023-02-11T11:08:58;108.13;;;49.63;;
26277;SDS011;14000;52.056;8.510;2023-02-11T11:11:25;115.10;;;49.87;;
26277;SDS011;14000;52.056;8.510;2023-02-11T11:16:21;113.10;;;49.23;;
26277;SDS011;14000;52.056;8.510;2023-02-11T11:18:53;127.77;;;49.87;;
26277;SDS011;14000;52.056;8.510;2023-02-11T11:21:41;99.93;;;47.33;;
26277;SDS011;14000;52.056;8.510;2023-02-11T11:24:17;124.33;;;52.57;;
26277;SDS011;14000;52.056;8.510;2023-02-11T11:26:54;106.43;;;47.33;;
26277;SDS011;14000;52.056;8.510;2023-02-11T11:29:25;111.57;;;48.80;;
26277;SDS011;14000;52.056;8.510;2023-02-11T11:32:01;111.43;;;48.33;;
26277;SDS011;14000;52.056;8.510;2023-02-11T11:37:09;120.63;;;50.30;;
26277;SDS011;14000;52.056;8.510;2023-02-11T11:39:35;128.27;;;52.67;;
26277;SDS011;14000;52.056;8.510;2023-02-11T11:42:13;114.93;;;50.07;;
26277;SDS011;14000;52.056;8.510;2023-02-11T11:50:08;110.07;;;48.87;;
26277;SDS011;14000;52.056;8.510;2023-02-11T11:52:49;111.50;;;48.73;;
26277;SDS011;14000;52.056;8.510;2023-02-11T11:55:37;125.10;;;50.27;;
26277;SDS011;14000;52.056;8.510;2023-02-11T11:58:23;117.00;;;48.77;;
26277;SDS011;14000;52.056;8.510;2023-02-11T12:13:55;107.83;;;47.53;;
26277;SDS011;14000;52.056;8.510;2023-02-11T12:41:27;89.53;;;42.70;;
26277;SDS011;14000;52.056;8.510;2023-02-11T12:44:28;96.43;;;42.63;;
26277;SDS011;14000;52.056;8.510;2023-02-11T12:49:43;90.97;;;42.67;;
26277;SDS011;14000;52.056;8.510;2023-02-11T12:52:33;96.13;;;41.87;;
26277;SDS011;14000;52.056;8.510;2023-02-11T12:55:18;80.83;;;40.77;;
26277;SDS011;14000;52.056;8.510;2023-02-11T12:57:46;81.10;;;40.30;;
26277;SDS011;14000;52.056;8.510;2023-02-11T13:05:33;96.50;;;41.47;;
26277;SDS011;14000;52.056;8.510;2023-02-11T13:10:51;93.77;;;42.03;;
26277;SDS011;14000;52.056;8.510;2023-02-11T13:13:37;83.77;;;39.60;;
26277;SDS011;14000;52.056;8.510;2023-02-11T13:24:41;83.17;;;38.53;;
26277;SDS011;14000;52.056;8.510;2023-02-11T13:30:34;88.53;;;40.03;;
26277;SDS011;14000;52.056;8.510;2023-02-11T13:33:05;84.57;;;39.60;;
26277;SDS011;14000;52.056;8.510;2023-02-11T13:35:44;92.70;;;42.23;;
26277;SDS011;14000;52.056;8.510;2023-02-11T13:38:22;82.23;;;38.70;;
26277;SDS011;14000;52.056;8.510;2023-02-11T13:43:24;86.80;;;40.47;;
26277;SDS011;14000;52.056;8.510;2023-02-11T13:45:53;87.90;;;40.00;;
26277;SDS011;14000;52.056;8.510;2023-02-11T13:48:36;84.67;;;39.43;;
26277;SDS011;14000;52.056;8.510;2023-02-11T13:51:17;87.73;;;39.73;;
26277;SDS011;14000;52.056;8.510;2023-02-11T13:53:58;82.57;;;37.47;;
26277;SDS011;14000;52.056;8.510;2023-02-11T13:56:35;79.73;;;38.77;;
26277;SDS011;14000;52.056;8.510;2023-02-11T14:04:35;84.70;;;39.47;;
26277;SDS011;14000;52.056;8.510;2023-02-11T14:07:24;80.70;;;37.90;;
26277;SDS011;14000;52.056;8.510;2023-02-11T14:13:26;79.20;;;37.97;;
26277;SDS011;14000;52.056;8.510;2023-02-11T14:16:14;82.80;;;39.73;;
26277;SDS011;14000;52.056;8.510;2023-02-11T14:23:48;80.93;;;38.13;;
26277;SDS011;14000;52.056;8.510;2023-02-11T14:39:53;80.17;;;39.17;;
26277;SDS011;14000;52.056;8.510;2023-02-11T14:42:25;77.80;;;37.67;;
26277;SDS011;14000;52.056;8.510;2023-02-11T14:44:54;77.20;;;37.73;;
26277;SDS011;14000;52.056;8.510;2023-02-11T14:47:24;74.13;;;37.37;;
26277;SDS011;14000;52.056;8.510;2023-02-11T14:50:23;72.10;;;35.23;;
26277;SDS011;14000;52.056;8.510;2023-02-11T14:52:52;74.63;;;35.73;;
26277;SDS011;14000;52.056;8.510;2023-02-11T14:55:27;69.27;;;36.67;;
26277;SDS011;14000;52.056;8.510;2023-02-11T14:58:11;79.17;;;35.83;;
26277;SDS011;14000;52.056;8.510;2023-02-11T15:00:46;78.53;;;38.60;;
26277;SDS011;14000;52.056;8.510;2023-02-11T15:03:32;72.10;;;36.63;;
26277;SDS011;14000;52.056;8.510;2023-02-11T15:05:59;77.03;;;37.47;;
26277;SDS011;14000;52.056;8.510;2023-02-11T15:08:29;74.97;;;36.33;;
26277;SDS011;14000;52.056;8.510;2023-02-11T15:10:55;76.10;;;36.30;;
26277;SDS011;14000;52.056;8.510;2023-02-11T15:13:22;79.13;;;37.77;;
26277;SDS011;14000;52.056;8.510;2023-02-11T15:15:56;72.67;;;37.23;;
26277;SDS011;14000;52.056;8.510;2023-02-11T15:18:31;79.70;;;37.60;;
26277;SDS011;14000;52.056;8.510;2023-02-11T15:21:01;71.27;;;36.07;;
26277;SDS011;14000;52.056;8.510;2023-02-11T15:23:27;75.43;;;37.40;;
26277;SDS011;14000;52.056;8.510;2023-02-11T15:25:54;70.80;;;35.07;;
26277;SDS011;14000;52.056;8.510;2023-02-11T15:28:22;81.03;;;36.97;;
26277;SDS011;14000;52.056;8.510;2023-02-11T15:30:57;68.90;;;36.70;;
26277;SDS011;14000;52.056;8.510;2023-02-11T15:33:39;75.53;;;37.07;;
26277;SDS011;14000;52.056;8.510;2023-02-11T15:36:05;81.60;;;39.47;;
26277;SDS011;14000;52.056;8.510;2023-02-11T15:38:31;71.30;;;35.00;;
26277;SDS011;14000;52.056;8.510;2023-02-11T15:41:01;70.63;;;35.73;;
26277;SDS011;14000;52.056;8.510;2023-02-11T15:46:09;77.57;;;36.43;;
26277;SDS011;14000;52.056;8.510;2023-02-11T15:48:40;73.47;;;35.67;;
26277;SDS011;14000;52.056;8.510;2023-02-11T15:51:16;72.57;;;37.10;;
26277;SDS011;14000;52.056;8.510;2023-02-11T15:53:50;73.77;;;36.50;;
26277;SDS011;14000;52.056;8.510;2023-02-11T15:56:24;72.30;;;37.50;;
26277;SDS011;14000;52.056;8.510;2023-02-11T15:58:55;72.03;;;36.10;;
26277;SDS011;14000;52.056;8.510;2023-02-11T16:01:30;73.50;;;36.50;;
26277;SDS011;14000;52.056;8.510;2023-02-11T16:03:58;68.10;;;36.10;;
26277;SDS011;14000;52.056;8.510;2023-02-11T16:06:25;73.20;;;36.30;;
26277;SDS011;14000;52.056;8.510;2023-02-11T16:09:03;68.37;;;35.70;;
26277;SDS011;14000;52.056;8.510;2023-02-11T16:11:33;75.13;;;35.60;;
26277;SDS011;14000;52.056;8.510;2023-02-11T16:14:15;68.23;;;34.23;;
26277;SDS011;14000;52.056;8.510;2023-02-11T16:16:44;70.27;;;35.07;;
26277;SDS011;14000;52.056;8.510;2023-02-11T16:19:15;68.57;;;35.60;;
26277;SDS011;14000;52.056;8.510;2023-02-11T16:21:44;72.23;;;35.30;;
26277;SDS011;14000;52.056;8.510;2023-02-11T16:24:26;72.03;;;36.07;;
26277;SDS011;14000;52.056;8.510;2023-02-11T16:27:01;73.80;;;36.50;;
26277;SDS011;14000;52.056;8.510;2023-02-11T16:29:29;69.17;;;35.60;;
26277;SDS011;14000;52.056;8.510;2023-02-11T16:34:31;73.67;;;36.23;;
26277;SDS011;14000;52.056;8.510;2023-02-11T16:36:57;74.30;;;35.50;;
26277;SDS011;14000;52.056;8.510;2023-02-11T16:39:22;66.37;;;34.67;;
26277;SDS011;14000;52.056;8.510;2023-02-11T16:41:48;65.57;;;33.10;;
26277;SDS011;14000;52.056;8.510;2023-02-11T16:44:15;66.27;;;33.17;;
26277;SDS011;14000;52.056;8.510;2023-02-11T16:46:41;66.87;;;34.20;;
26277;SDS011;14000;52.056;8.510;2023-02-11T16:49:09;63.10;;;33.57;;
26277;SDS011;14000;52.056;8.510;2023-02-11T16:51:40;71.77;;;33.77;;
26277;SDS011;14000;52.056;8.510;2023-02-11T16:54:08;66.33;;;32.10;;
26277;SDS011;14000;52.056;8.510;2023-02-11T16:56:40;61.97;;;33.13;;
26277;SDS011;14000;52.056;8.510;2023-02-11T16:59:06;64.27;;;34.27;;
26277;SDS011;14000;52.056;8.510;2023-02-11T17:01:32;67.43;;;34.17;;
26277;SDS011;14000;52.056;8.510;2023-02-11T17:03:58;67.37;;;34.30;;
26277;SDS011;14000;52.056;8.510;2023-02-11T17:06:24;69.00;;;35.10;;
26277;SDS011;14000;52.056;8.510;2023-02-11T17:08:51;66.80;;;33.83;;
26277;SDS011;14000;52.056;8.510;2023-02-11T17:11:17;64.97;;;33.97;;
26277;SDS011;14000;52.056;8.510;2023-02-11T17:13:43;69.37;;;34.30;;